Main page
METAR-TAF:

METAR-TAF

Airports :

Flughafen Lahr

Lahr, Germany

latitude: 48-22-09N, longitude: 007-49-40E, elevation: 156 m

Current weather observation

The report was made 28 minutes ago, at 16:20 UTC
Wind 2 kt from variable directions
Temperature 12°C
Humidity 100%
Pressure 1012 hPa
Visibility: 4000 m
Broken clouds at a height of 500 ft
mist

METAR: EDTL 231620Z VRB02KT 4000 BR BKN005 12/12 Q1012

Time: 18:48 (16:48 UTC)

Forecast

The report was made 2 hours and 48 minutes ago, at 14:00 UTC
Forecast valid from 23 at 15 UTC to 23 at 24 UTC
Wind 3 kt from variable directions
Visibility: 3000 m
Broken clouds at a height of 500 ft
mist
Temporary
from 23 at 18 UTC to 23 at 21 UTC
Visibility: 2000 m
mist
Becoming
from 23 at 19 UTC to 23 at 21 UTC
Visibility: 0300 m
at a height lower than 100 ft
fog

TAF: EDTL 231400Z 2315/2324 VRB03KT 3000 BR BKN005 TEMPO 2318/2321 2000 BR BECMG 2319/2321 0300 FG VV000

Weather observations and forecasts of more than 4000 airports (METAR and TAF reports).

The available stations are represented by yellow and red dots on the map.

Hover mouse over dot to see the name of the station.

Then click to see weather observations and forecasts.

To change the map : click on the green buttons with a black cross to zoom in, on the green button with a dash to zoom out, or on the green arrows for adjacent maps.


METAR-TAF: